Tuesday, January 16, 2018, 6:53 AM EST
Back to Local

KCON, Concord, Concord Municipal Airport

Location: Concord, NH, United States Lat: 43.195
Local Time: 6:53 AM EST (11:53 GMT) Lon: -71.501
Time Zone: US/Eastern Elev: 344 ft

Show me the last for .
Show Decoded

2018-01-16 05:51 METAR KCON 161051Z AUTO 00000KT 10SM OVC030 M09/M13 A3051 RMK AO2 SLP337
                 T10941133 $ =
2018-01-16 05:16 METAR KCON 161016Z AUTO 30003KT 10SM SCT028 M10/M14 A3050 RMK AO2 T11001139 $ =
2018-01-16 05:03 METAR KCON 161003Z AUTO 28003KT 10SM BKN028 M10/M13 A3049 RMK AO2 T11001133 $ =
2018-01-16 04:51 METAR KCON 160951Z AUTO 00000KT 10SM FEW027 M10/M14 A3048 RMK AO2 SLP329
                 T11001139 $ =
2018-01-16 04:40 METAR KCON 160940Z AUTO 20003KT 10SM SCT027 M10/M14 A3048 RMK AO2 T11001139 $ =
2018-01-16 03:51 METAR KCON 160851Z AUTO 29003KT 10SM OVC028 M09/M14 A3049 RMK AO2 SLP333
                 T10941139 50000 $ =
2018-01-16 02:51 METAR KCON 160751Z AUTO 31003KT 10SM OVC029 M09/M14 A3051 RMK AO2 SLP339
                 T10941144 $ =
2018-01-16 02:31 METAR KCON 160731Z AUTO 00000KT 10SM OVC029 M09/M15 A3051 RMK AO2 T10941150 $ =
2018-01-16 01:51 METAR KCON 160651Z AUTO 03004KT 10SM OVC031 M09/M15 A3051 RMK AO2 SLP337
                 T10941150 $ =
2018-01-16 00:51 METAR KCON 160551Z AUTO 00000KT 10SM OVC031 M09/M16 A3049 RMK AO2 SLP333
                 T10941156 11083 21094 58023 $ =
2018-01-15 23:51 METAR KCON 160451Z AUTO 31005KT 10SM OVC030 M09/M17 A3053 RMK AO2 SLP346
                 T10941167 410611183 $ =
2018-01-15 22:51 METAR KCON 160351Z AUTO 31006KT 10SM OVC030 M09/M17 A3055 RMK AO2 SLP353
                 T10941167 $ =
2018-01-15 21:51 METAR KCON 160251Z AUTO 31004KT 10SM OVC032 M09/M16 A3056 RMK AO2 SLP357
                 T10891161 56012 $ =
2018-01-15 20:51 METAR KCON 160151Z AUTO 33004KT 10SM OVC035 M09/M18 A3057 RMK AO2 SLP358
                 T10891178 $ =
2018-01-15 19:51 METAR KCON 160051Z AUTO 31006KT 10SM OVC038 M09/M18 A3059 RMK AO2 SLP368
                 T10891178 $ =
2018-01-15 18:51 METAR KCON 152351Z AUTO 33003KT 10SM OVC034 M08/M18 A3060 RMK AO2 SLP370
                 T10831178 11061 21089 57005 $ =
2018-01-15 17:51 METAR KCON 152251Z AUTO 35004KT 10SM BKN036 M08/M20 A3060 RMK AO2 SLP372
                 T10831200 $ =
2018-01-15 16:51 METAR KCON 152151Z AUTO 02004KT 10SM SCT031 M08/M20 A3061 RMK AO2 SLP373
                 T10781200 $ =
2018-01-15 16:07 METAR KCON 152107Z AUTO 01003KT 10SM OVC030 M07/M22 A3062 RMK AO2 T10671217 $ =
2018-01-15 15:51 METAR KCON 152051Z AUTO 03006KT 10SM OVC029 M07/M22 A3061 RMK AO2 SLP375
                 T10671217 55014 $ =
2018-01-15 14:51 METAR KCON 151951Z AUTO 02006KT 10SM OVC029 M07/M22 A3060 RMK AO2 SLP370
                 T10671217 $ =
2018-01-15 14:26 METAR KCON 151926Z AUTO 36008KT 10SM OVC029 M07/M21 A3061 RMK AO2 T10721211 $ =
2018-01-15 13:51 METAR KCON 151851Z AUTO 35009KT 10SM OVC030 M07/M21 A3062 RMK AO2 SLP378
                 T10721206 $ =
2018-01-15 12:51 METAR KCON 151751Z AUTO 01005KT 10SM CLR M08/M19 A3065 RMK AO2 SLP389 T10781194
                 11078 21183 58045 $ =
2018-01-15 11:51 METAR KCON 151651Z AUTO 05006KT 10SM CLR M09/M20 A3071 RMK AO2 SLP407 T10891200
                 $ =
2018-01-15 10:51 METAR KCON 151551Z AUTO 07006KT 10SM CLR M09/M19 A3076 RMK AO2 SLP423 T10941189
                 $ =
2018-01-15 09:51 METAR KCON 151451Z AUTO 00000KT 10SM CLR M12/M18 A3079 RMK AO2 SLP435 T11221178
                 58001 $ =
2018-01-15 08:51 METAR KCON 151351Z AUTO 00000KT 10SM CLR M14/M17 A3079 RMK AO2 SLP437 T11391172
                 $ =
2018-01-15 07:51 METAR KCON 151251Z AUTO 00000KT 10SM CLR M18/M21 A3079 RMK AO2 SLP437 T11781211
                 $ =

Support USWX by starting your Amazon purchase here.